Time;durP1;ratioP1;P1;durP2;ratioP2;P2;SDS_P1;SDS_P2;PMS_P1;PMS_P2;Temp;Humidity;BMP_temperature;BMP_pressure;BME280_temperature;BME280_humidity;BME280_pressure;Samples;Min_cycle;Max_cycle;Signal;HPM_P1;HPM_P2
2023/06/11 00:02:21;;;;;;;6.82;5.03;;;23.00;11.90;;;;;;4801417;29;37278;-84
2023/06/11 00:04:49;;;;;;;7.63;5.18;;;22.90;20.00;;;;;;4786060;29;39576;-84
2023/06/11 00:07:15;;;;;;;7.60;5.38;;;22.90;19.90;;;;;;4798632;29;37536;-85
2023/06/11 00:09:41;;;;;;;6.97;5.32;;;22.90;22.00;;;;;;4797386;29;38293;-84
2023/06/11 00:12:07;;;;;;;6.97;4.90;;;22.90;24.40;;;;;;4798728;29;36219;-85
2023/06/11 00:14:33;;;;;;;6.53;5.07;;;22.90;24.10;;;;;;4794072;29;37763;-84
2023/06/11 00:17:00;;;;;;;8.88;5.32;;;22.80;24.40;;;;;;4799155;29;38897;-84
2023/06/11 00:19:28;;;;;;;9.35;6.53;;;22.80;28.90;;;;;;4791266;29;36911;-85
2023/06/11 00:21:56;;;;;;;10.18;6.40;;;22.70;41.90;;;;;;4797707;29;36659;-85
2023/06/11 00:24:22;;;;;;;9.68;5.30;;;22.70;60.80;;;;;;4792106;29;38641;-85
2023/06/11 00:26:49;;;;;;;6.85;5.40;;;22.60;69.80;;;;;;4797505;29;37492;-85
2023/06/11 00:29:15;;;;;;;5.88;5.28;;;22.60;86.10;;;;;;4800529;29;39138;-85
2023/06/11 00:31:41;;;;;;;6.05;5.35;;;22.60;97.20;;;;;;4792213;29;35234;-85
2023/06/11 00:34:07;;;;;;;9.20;5.57;;;22.60;99.90;;;;;;4796854;29;37831;-85
2023/06/11 00:36:33;;;;;;;8.45;5.10;;;22.50;99.90;;;;;;4797616;29;38282;-85
2023/06/11 00:38:59;;;;;;;10.25;5.63;;;22.40;99.90;;;;;;4801287;29;38692;-84
2023/06/11 00:41:29;;;;;;;9.45;5.50;;;22.40;99.90;;;;;;4801927;29;38273;-85
2023/06/11 00:43:56;;;;;;;8.10;6.22;;;22.40;99.90;;;;;;4800317;29;39579;-87
2023/06/11 00:46:22;;;;;;;9.65;6.03;;;22.30;99.90;;;;;;4796158;29;37330;-84
2023/06/11 00:48:50;;;;;;;7.10;5.60;;;22.30;99.90;;;;;;4799765;29;37289;-88
2023/06/11 00:51:20;;;;;;;10.68;6.10;;;22.30;99.90;;;;;;4799039;29;36836;-86
2023/06/11 00:53:47;;;;;;;9.48;5.18;;;22.40;99.90;;;;;;4797525;29;38475;-85
2023/06/11 00:56:17;;;;;;;7.93;5.90;;;22.40;99.90;;;;;;4795948;29;38860;-86
2023/06/11 00:58:45;;;;;;;9.20;5.78;;;22.50;99.90;;;;;;4780244;29;37367;-86
2023/06/11 01:03:52;;;;;;;7.00;6.07;;;22.50;99.90;;;;;;4851560;23;20210;-86
2023/06/11 01:06:22;;;;;;;10.57;5.72;;;22.50;99.90;;;;;;4815182;29;36512;-88
2023/06/11 01:08:59;;;;;;;7.22;5.18;;;22.50;99.90;;;;;;4822015;29;37287;-89
2023/06/11 01:11:27;;;;;;;8.32;6.22;;;22.50;99.90;;;;;;4844198;29;36144;-90
2023/06/11 01:13:54;;;;;;;11.60;5.20;;;22.50;99.90;;;;;;4840951;29;38063;-91
2023/06/11 01:16:36;;;;;;;7.18;5.57;;;22.40;99.90;;;;;;4844517;29;38871;-89
2023/06/11 01:19:18;;;;;;;8.23;5.38;;;22.40;99.90;;;;;;4826407;29;37310;-88
2023/06/11 01:21:53;;;;;;;6.55;5.85;;;22.40;99.90;;;;;;4838964;29;37059;-90
2023/06/11 01:24:40;;;;;;;10.15;7.10;;;22.30;99.90;;;;;;4821621;29;37776;-89
2023/06/11 01:27:43;;;;;;;9.52;6.28;;;22.20;1.00;;;;;;4837847;29;38409;-89
2023/06/11 01:30:17;;;;;;;6.38;5.78;;;22.10;1.00;;;;;;4827115;29;36839;-89
2023/06/11 01:32:48;;;;;;;8.82;5.50;;;22.10;1.00;;;;;;4832903;29;35869;-89
2023/06/11 01:35:14;;;;;;;6.72;5.65;;;22.20;1.00;;;;;;4838892;29;39410;-89
2023/06/11 01:37:45;;;;;;;7.65;6.25;;;22.10;1.00;;;;;;4835441;29;37329;-89
2023/06/11 01:40:13;;;;;;;7.88;6.90;;;22.00;1.00;;;;;;4827012;29;36958;-89
2023/06/11 01:42:39;;;;;;;9.25;6.40;;;22.00;1.00;;;;;;4820429;29;35973;-90
2023/06/11 01:45:07;;;;;;;6.78;6.05;;;21.90;1.00;;;;;;4823251;29;37774;-89
2023/06/11 01:47:33;;;;;;;7.13;6.43;;;21.90;1.00;;;;;;4822912;29;37717;-89
2023/06/11 01:50:00;;;;;;;8.50;6.13;;;21.80;1.00;;;;;;4839678;29;38562;-89
2023/06/11 01:52:26;;;;;;;7.65;6.30;;;21.80;1.00;;;;;;4839330;29;38181;-90
2023/06/11 01:54:52;;;;;;;7.75;6.20;;;21.70;1.00;;;;;;4836750;29;40689;-90
2023/06/11 01:57:19;;;;;;;10.80;6.05;;;21.60;1.00;;;;;;4833985;29;38576;-90
2023/06/11 01:59:45;;;;;;;9.48;7.43;;;21.60;1.00;;;;;;4840537;29;38394;-90
2023/06/11 02:02:15;;;;;;;11.48;6.78;;;21.50;1.00;;;;;;4826412;29;37575;-90
2023/06/11 02:04:41;;;;;;;9.77;7.53;;;21.50;1.00;;;;;;4827227;29;37968;-89
2023/06/11 02:07:07;;;;;;;7.47;6.68;;;21.40;99.90;;;;;;4843158;29;38620;-89
2023/06/11 02:09:33;;;;;;;9.70;6.47;;;21.40;99.90;;;;;;4826172;29;37120;-88
2023/06/11 02:12:00;;;;;;;7.97;6.45;;;21.40;1.00;;;;;;4826139;29;35999;-89
2023/06/11 02:14:28;;;;;;;10.23;6.65;;;21.20;1.00;;;;;;4825686;29;37878;-90
2023/06/11 02:16:56;;;;;;;9.18;7.00;;;21.10;99.90;;;;;;4827442;29;38723;-90
2023/06/11 02:19:22;;;;;;;9.07;6.68;;;21.10;1.00;;;;;;4823356;29;38473;-89
2023/06/11 02:21:50;;;;;;;9.13;7.03;;;21.00;99.90;;;;;;4838318;29;37350;-90
2023/06/11 02:24:16;;;;;;;8.10;6.78;;;21.10;1.00;;;;;;4833498;29;38500;-90
2023/06/11 02:26:42;;;;;;;8.52;6.53;;;21.00;1.00;;;;;;4812930;29;37973;-89
2023/06/11 02:29:09;;;;;;;10.95;6.90;;;20.90;1.00;;;;;;4824003;29;36934;-87
2023/06/11 02:31:35;;;;;;;8.23;6.78;;;20.90;1.00;;;;;;4819084;29;36304;-89
2023/06/11 02:34:01;;;;;;;13.23;7.00;;;20.90;1.00;;;;;;4820326;29;37710;-90
2023/06/11 02:36:27;;;;;;;9.40;7.28;;;20.80;26.90;;;;;;4818098;29;47080;-89
2023/06/11 02:38:59;;;;;;;8.73;7.57;;;20.70;99.90;;;;;;4830383;29;38323;-90
2023/06/11 02:41:25;;;;;;;11.38;7.70;;;20.70;1.00;;;;;;4821632;29;36164;-87
2023/06/11 02:43:51;;;;;;;10.38;7.15;;;20.60;1.00;;;;;;4824537;29;37854;-88
2023/06/11 02:46:17;;;;;;;7.20;6.50;;;20.60;1.00;;;;;;4839996;29;38514;-88
2023/06/11 02:48:43;;;;;;;10.95;7.22;;;20.50;13.40;;;;;;4828658;29;36900;-88
2023/06/11 02:51:09;;;;;;;10.63;7.97;;;20.40;1.00;;;;;;4824488;29;37109;-87
2023/06/11 02:53:35;;;;;;;10.95;7.80;;;20.40;1.00;;;;;;4831978;29;38926;-88
2023/06/11 02:56:08;;;;;;;9.10;7.40;;;20.40;1.00;;;;;;4820672;29;37393;-88
2023/06/11 02:58:34;;;;;;;9.45;7.45;;;20.50;99.90;;;;;;4831928;29;37678;-88
2023/06/11 03:01:01;;;;;;;9.25;7.57;;;20.40;1.00;;;;;;4817987;29;36021;-88
2023/06/11 03:03:34;;;;;;;9.80;7.22;;;20.40;1.00;;;;;;4812341;29;46480;-88
2023/06/11 03:06:00;;;;;;;16.13;8.32;;;20.40;99.90;;;;;;4800710;29;37639;-88
2023/06/11 03:08:27;;;;;;;8.70;7.80;;;20.40;99.90;;;;;;4806904;29;37228;-89
2023/06/11 03:11:02;;;;;;;8.48;7.45;;;20.40;1.00;;;;;;4801540;29;36754;-89
2023/06/11 03:13:28;;;;;;;13.48;8.32;;;20.30;99.90;;;;;;4796107;29;47087;-88
2023/06/11 03:15:55;;;;;;;9.63;8.13;;;20.20;99.90;;;;;;4818105;29;37415;-89
2023/06/11 03:18:22;;;;;;;12.43;8.10;;;20.20;1.00;;;;;;4801157;29;37219;-89
2023/06/11 03:20:48;;;;;;;11.80;8.05;;;20.20;99.90;;;;;;4820084;29;37937;-89
2023/06/11 03:23:15;;;;;;;9.25;7.93;;;20.20;99.90;;;;;;4803249;29;37908;-89
2023/06/11 03:25:42;;;;;;;9.15;7.90;;;20.20;99.90;;;;;;4802638;29;38874;-88
2023/06/11 03:28:08;;;;;;;8.82;7.80;;;20.10;1.00;;;;;;4805933;29;37054;-89
2023/06/11 03:30:34;;;;;;;10.02;8.55;;;20.00;99.90;;;;;;4821125;29;35877;-89
2023/06/11 03:33:01;;;;;;;12.82;8.30;;;20.00;1.00;;;;;;4822012;29;37895;-87
2023/06/11 03:35:30;;;;;;;10.10;8.23;;;20.00;1.00;;;;;;4804427;29;47391;-88
2023/06/11 03:37:56;;;;;;;12.10;8.15;;;20.00;1.00;;;;;;4805585;29;37213;-88
2023/06/11 03:40:22;;;;;;;10.93;8.55;;;20.00;1.00;;;;;;4807011;29;36159;-87
2023/06/11 03:42:50;;;;;;;9.65;8.23;;;19.90;1.00;;;;;;4807893;29;37978;-88
2023/06/11 03:45:16;;;;;;;12.05;9.02;;;19.80;1.00;;;;;;4806210;29;38352;-88
2023/06/11 03:47:43;;;;;;;12.27;9.02;;;19.80;1.00;;;;;;4810458;29;37113;-90
2023/06/11 03:50:09;;;;;;;8.77;7.50;;;19.80;1.00;;;;;;4813980;29;37529;-89
2023/06/11 03:52:36;;;;;;;11.30;8.70;;;19.80;1.00;;;;;;4806190;29;37840;-90
2023/06/11 03:55:02;;;;;;;11.25;8.57;;;19.80;1.00;;;;;;4816441;29;39381;-89
2023/06/11 03:57:28;;;;;;;9.07;8.13;;;19.70;1.00;;;;;;4821610;29;37159;-90
2023/06/11 03:59:55;;;;;;;9.00;7.78;;;19.70;1.00;;;;;;4805468;29;37568;-91
2023/06/11 04:02:21;;;;;;;11.00;8.65;;;19.70;1.00;;;;;;4804239;29;39171;-89
2023/06/11 04:04:47;;;;;;;10.02;8.25;;;19.70;1.00;;;;;;4813323;29;38237;-89
2023/06/11 04:07:19;;;;;;;9.45;8.43;;;19.60;1.00;;;;;;4803396;29;38408;-90
2023/06/11 04:09:45;;;;;;;9.30;8.30;;;19.60;1.00;;;;;;4809204;29;37119;-89
2023/06/11 04:12:12;;;;;;;11.07;8.38;;;19.60;1.00;;;;;;4821812;29;37799;-90
2023/06/11 04:14:38;;;;;;;13.80;8.75;;;19.50;1.00;;;;;;4805360;29;38820;-89
2023/06/11 04:17:05;;;;;;;9.93;8.65;;;19.50;1.00;;;;;;4803206;29;38367;-88
2023/06/11 04:19:31;;;;;;;9.98;8.85;;;19.50;1.00;;;;;;4797630;29;36048;-88
2023/06/11 04:21:57;;;;;;;13.05;8.48;;;19.50;1.00;;;;;;4802520;29;37978;-89
2023/06/11 04:24:23;;;;;;;10.20;8.95;;;19.50;1.00;;;;;;4800694;29;37355;-89
2023/06/11 04:26:51;;;;;;;13.10;9.43;;;19.50;1.00;;;;;;4809283;29;37155;-89
2023/06/11 04:29:18;;;;;;;9.65;8.38;;;19.50;1.00;;;;;;4804665;29;36258;-88
2023/06/11 04:31:47;;;;;;;11.77;9.27;;;19.50;1.00;;;;;;4802860;29;37990;-89
2023/06/11 04:34:16;;;;;;;10.75;9.52;;;19.60;1.00;;;;;;4802300;29;37588;-88
2023/06/11 04:36:43;;;;;;;10.18;9.20;;;19.60;1.00;;;;;;4815858;29;39835;-88
2023/06/11 04:39:09;;;;;;;10.40;9.30;;;19.60;1.00;;;;;;4821803;29;37618;-87
2023/06/11 04:41:39;;;;;;;11.23;9.60;;;19.70;1.00;;;;;;4803037;29;37929;-89
2023/06/11 04:44:06;;;;;;;11.35;9.18;;;19.70;1.00;;;;;;4800936;29;37518;-86
2023/06/11 04:46:35;;;;;;;10.85;9.27;;;19.80;1.00;;;;;;4802494;29;37081;-88
2023/06/11 04:49:03;;;;;;;9.73;8.73;;;19.90;1.00;;;;;;4801554;29;36119;-84
2023/06/11 04:51:32;;;;;;;9.63;8.70;;;20.00;1.00;;;;;;4819148;29;38479;-88
2023/06/11 04:54:07;;;;;;;11.65;9.20;;;20.10;1.00;;;;;;4806355;29;39869;-89
2023/06/11 04:56:34;;;;;;;10.70;9.13;;;20.20;1.00;;;;;;4802226;29;47311;-89
2023/06/11 04:59:09;;;;;;;10.38;8.55;;;20.30;1.00;;;;;;4817132;29;37332;-89
2023/06/11 05:01:37;;;;;;;12.05;9.07;;;20.40;1.00;;;;;;4817230;29;46993;-89
2023/06/11 05:04:03;;;;;;;10.52;8.45;;;20.60;1.00;;;;;;4817558;29;38133;-88
2023/06/11 05:06:33;;;;;;;11.27;8.93;;;20.90;1.00;;;;;;4797183;29;36521;-88
2023/06/11 05:08:59;;;;;;;11.93;8.52;;;21.20;1.00;;;;;;4800940;29;36343;-90
2023/06/11 05:11:26;;;;;;;10.25;9.18;;;21.50;1.00;;;;;;4809120;29;38518;-89
2023/06/11 05:13:52;;;;;;;9.45;8.40;;;21.70;1.00;;;;;;4797587;29;37767;-89
2023/06/11 05:16:21;;;;;;;11.30;8.80;;;21.80;1.00;;;;;;4816843;29;37686;-89
2023/06/11 05:18:47;;;;;;;9.32;7.85;;;21.90;1.00;;;;;;4818964;29;38167;-89
2023/06/11 05:21:14;;;;;;;10.00;7.40;;;22.10;1.00;;;;;;4801145;29;37656;-89
2023/06/11 05:23:41;;;;;;;9.35;8.25;;;22.30;1.00;;;;;;4799962;29;37384;-89
2023/06/11 05:26:13;;;;;;;10.20;8.15;;;22.30;1.00;;;;;;4815352;29;37226;-89
2023/06/11 05:28:40;;;;;;;9.85;8.73;;;22.30;1.00;;;;;;4804841;29;36243;-89
2023/06/11 05:31:09;;;;;;;16.58;7.75;;;22.30;1.00;;;;;;4799620;29;37929;-89
2023/06/11 05:33:36;;;;;;;9.05;7.75;;;22.40;1.00;;;;;;4807060;29;37498;-89
2023/06/11 05:36:04;;;;;;;9.60;8.57;;;22.40;1.00;;;;;;4820675;29;38686;-87
2023/06/11 05:38:31;;;;;;;9.80;8.80;;;22.40;1.00;;;;;;4822815;29;36181;-89
2023/06/11 05:40:57;;;;;;;11.07;9.65;;;22.50;1.00;;;;;;4822567;29;38120;-89
2023/06/11 05:43:25;;;;;;;10.93;8.57;;;22.50;1.00;;;;;;4818370;29;37276;-88
2023/06/11 05:45:52;;;;;;;10.20;8.90;;;22.60;1.00;;;;;;4806657;29;37768;-88
2023/06/11 05:48:31;;;;;;;8.65;7.32;;;22.70;1.00;;;;;;4808038;29;35898;-89
2023/06/11 05:50:57;;;;;;;11.13;8.75;;;23.00;1.00;;;;;;4800431;29;39153;-89
2023/06/11 05:53:23;;;;;;;8.90;8.10;;;23.00;99.90;;;;;;4823450;29;37990;-89
2023/06/11 05:55:49;;;;;;;8.88;7.68;;;23.10;1.00;;;;;;4822858;29;37174;-89
2023/06/11 05:58:15;;;;;;;10.48;8.65;;;23.20;99.90;;;;;;4805092;29;37557;-88
2023/06/11 06:00:42;;;;;;;12.15;8.48;;;23.30;5.30;;;;;;4811124;29;38911;-88
2023/06/11 06:03:09;;;;;;;9.27;7.72;;;23.30;1.00;;;;;;4800808;29;37356;-88
2023/06/11 06:05:35;;;;;;;12.63;9.25;;;23.20;1.00;;;;;;4808447;29;38274;-85
2023/06/11 06:08:01;;;;;;;10.38;8.20;;;23.40;1.00;;;;;;4813618;29;37674;-86
2023/06/11 06:10:27;;;;;;;9.15;7.63;;;23.50;6.60;;;;;;4799245;29;48704;-82
2023/06/11 06:12:53;;;;;;;8.90;7.70;;;23.70;1.00;;;;;;4813899;29;38552;-83
2023/06/11 06:15:19;;;;;;;10.77;7.20;;;23.60;99.90;;;;;;4792679;29;36990;-80
2023/06/11 06:17:45;;;;;;;9.50;8.00;;;23.90;1.00;;;;;;4811298;29;37462;-80
2023/06/11 06:20:12;;;;;;;9.77;8.15;;;23.90;1.00;;;;;;4811949;29;39225;-77
2023/06/11 06:22:38;;;;;;;8.27;7.07;;;23.80;1.00;;;;;;4801963;29;36153;-90
2023/06/11 06:25:05;;;;;;;12.20;7.35;;;23.90;99.90;;;;;;4815652;29;38739;-92
2023/06/11 06:27:31;;;;;;;7.88;7.18;;;23.90;1.00;;;;;;4819582;29;37636;-89
2023/06/11 06:29:57;;;;;;;9.13;7.35;;;24.10;1.00;;;;;;4813513;29;38577;-86
2023/06/11 06:32:23;;;;;;;7.88;7.10;;;24.10;99.90;;;;;;4793933;29;38308;-85
2023/06/11 06:34:50;;;;;;;8.15;7.38;;;24.10;99.90;;;;;;4805999;29;37878;-86
2023/06/11 06:37:16;;;;;;;9.43;7.63;;;24.30;99.90;;;;;;4789339;29;37106;-85
2023/06/11 06:39:42;;;;;;;8.27;6.90;;;24.40;99.90;;;;;;4802778;29;39335;-83
2023/06/11 06:42:08;;;;;;;9.93;7.75;;;24.50;99.90;;;;;;4814718;29;38120;-88
2023/06/11 06:44:34;;;;;;;10.00;7.60;;;24.60;1.00;;;;;;4794621;29;37160;-87
2023/06/11 06:47:01;;;;;;;11.73;6.90;;;24.50;1.00;;;;;;4798541;29;36000;-88
2023/06/11 06:49:27;;;;;;;9.45;7.20;;;24.50;99.90;;;;;;4811124;29;41029;-88
2023/06/11 06:51:53;;;;;;;11.00;7.45;;;24.70;1.00;;;;;;4812976;29;38666;-87
2023/06/11 06:54:19;;;;;;;8.30;7.40;;;24.80;1.00;;;;;;4801698;29;37613;-87
2023/06/11 06:56:47;;;;;;;8.38;7.57;;;25.00;87.00;;;;;;4805149;29;37795;-87
2023/06/11 06:59:14;;;;;;;8.05;6.93;;;25.00;99.90;;;;;;4800304;29;37805;-86
2023/06/11 07:01:40;;;;;;;8.25;7.38;;;24.90;1.00;;;;;;4814362;29;38587;-85
2023/06/11 07:04:06;;;;;;;8.88;7.50;;;25.00;1.00;;;;;;4809221;29;38409;-86
2023/06/11 07:06:32;;;;;;;8.32;6.50;;;25.10;26.20;;;;;;4820154;29;36237;-86
2023/06/11 07:08:58;;;;;;;9.13;7.43;;;25.50;1.00;;;;;;4821185;29;37341;-88
2023/06/11 07:11:24;;;;;;;8.75;6.93;;;25.60;1.00;;;;;;4822456;29;37610;-86
2023/06/11 07:13:50;;;;;;;9.95;7.28;;;25.70;1.00;;;;;;4834142;29;38387;-87
2023/06/11 07:16:17;;;;;;;7.47;6.68;;;26.00;1.00;;;;;;4837143;29;36205;-85
2023/06/11 07:18:43;;;;;;;7.40;6.70;;;26.40;1.00;;;;;;4837120;29;39772;-84
2023/06/11 07:21:09;;;;;;;8.45;6.95;;;26.40;1.00;;;;;;4837132;29;37260;-85
2023/06/11 07:23:35;;;;;;;9.15;7.22;;;26.20;99.90;;;;;;4818473;29;37165;-85
2023/06/11 07:26:02;;;;;;;8.43;7.03;;;26.10;99.90;;;;;;4828211;29;37285;-84
2023/06/11 07:28:28;;;;;;;10.57;7.80;;;26.30;1.00;;;;;;4838546;29;37579;-89
2023/06/11 07:30:54;;;;;;;8.57;7.75;;;26.10;1.00;;;;;;4821882;29;39647;-84
2023/06/11 07:33:20;;;;;;;8.55;7.15;;;26.30;1.00;;;;;;4834689;29;37031;-85
2023/06/11 07:35:49;;;;;;;8.45;7.30;;;26.50;1.00;;;;;;4822559;29;36043;-89
2023/06/11 07:38:16;;;;;;;10.45;7.18;;;26.90;99.90;;;;;;4818862;29;37827;-84
2023/06/11 07:40:42;;;;;;;8.38;6.60;;;27.10;1.00;;;;;;4816660;29;40257;-85
2023/06/11 07:43:08;;;;;;;11.25;6.95;;;27.20;1.00;;;;;;4835300;29;39541;-85
2023/06/11 07:45:34;;;;;;;6.70;5.95;;;27.30;1.00;;;;;;4835907;29;37552;-85
2023/06/11 07:48:02;;;;;;;12.10;7.57;;;27.10;1.00;;;;;;4815467;29;39001;-83
2023/06/11 07:50:28;;;;;;;11.45;7.70;;;26.90;1.00;;;;;;4813494;29;47304;-84
2023/06/11 07:52:54;;;;;;;8.15;7.30;;;26.70;1.00;;;;;;4832364;29;38102;-85
2023/06/11 07:55:21;;;;;;;8.82;6.82;;;26.90;99.90;;;;;;4827778;29;37256;-84
2023/06/11 07:57:48;;;;;;;8.20;7.07;;;27.20;95.90;;;;;;4830903;29;39224;-85
2023/06/11 08:00:16;;;;;;;8.50;7.68;;;27.40;1.00;;;;;;4824806;29;38535;-85
2023/06/11 08:02:46;;;;;;;10.95;7.50;;;27.50;99.90;;;;;;4835387;29;37257;-87
2023/06/11 08:05:17;;;;;;;6.95;6.15;;;27.50;1.00;;;;;;4812060;29;37148;-86
2023/06/11 08:07:44;;;;;;;7.40;6.65;;;27.40;7.70;;;;;;4808307;29;39527;-87
2023/06/11 08:10:11;;;;;;;8.38;7.50;;;27.40;92.10;;;;;;4798112;29;37719;-84
2023/06/11 08:12:37;;;;;;;8.85;7.85;;;27.50;1.00;;;;;;4814654;29;37667;-84
2023/06/11 08:15:04;;;;;;;7.25;6.65;;;27.70;99.90;;;;;;4811306;29;36435;-84
2023/06/11 08:17:30;;;;;;;8.65;7.00;;;27.70;1.00;;;;;;4796919;29;46874;-83
2023/06/11 08:19:56;;;;;;;7.28;6.57;;;27.90;1.00;;;;;;4809789;29;37284;-83
2023/06/11 08:22:22;;;;;;;8.43;6.97;;;28.30;99.90;;;;;;4818820;29;38482;-85
2023/06/11 08:25:14;;;;;;;10.00;7.25;;;28.30;1.00;;;;;;4816895;29;37237;-92
2023/06/11 08:27:40;;;;;;;6.93;6.22;;;28.00;1.00;;;;;;4805936;29;47052;-91
2023/06/11 08:30:07;;;;;;;7.07;6.47;;;28.20;1.00;;;;;;4800912;29;37696;-92
2023/06/11 08:32:33;;;;;;;9.20;7.43;;;28.40;18.00;;;;;;4817598;29;48470;-88
2023/06/11 08:34:59;;;;;;;8.02;6.20;;;28.30;1.00;;;;;;4797791;29;36264;-89
2023/06/11 08:37:25;;;;;;;10.27;7.05;;;28.40;99.90;;;;;;4793467;29;39049;-86
2023/06/11 08:39:51;;;;;;;47.08;9.43;;;28.70;1.00;;;;;;4813021;29;38489;-89
2023/06/11 08:42:18;;;;;;;9.43;6.60;;;28.80;99.90;;;;;;4817126;29;38075;-89
2023/06/11 08:44:46;;;;;;;8.98;6.60;;;28.90;1.00;;;;;;4801663;29;35905;-90
2023/06/11 08:47:15;;;;;;;7.45;6.68;;;28.90;99.90;;;;;;4817118;29;38643;-89
2023/06/11 08:49:44;;;;;;;7.60;6.78;;;28.50;99.90;;;;;;4793857;29;37629;-88
2023/06/11 08:52:12;;;;;;;7.72;6.90;;;28.60;99.90;;;;;;4784779;29;37443;-85
2023/06/11 08:54:39;;;;;;;8.43;6.18;;;29.00;1.00;;;;;;4806624;29;36526;-88
2023/06/11 08:57:07;;;;;;;11.10;6.32;;;29.20;99.90;;;;;;4797547;29;38029;-87
2023/06/11 08:59:33;;;;;;;8.07;6.13;;;29.30;99.90;;;;;;4800443;29;37958;-90
2023/06/11 09:02:00;;;;;;;8.38;6.22;;;29.10;1.00;;;;;;4799373;29;38181;-85
2023/06/11 09:04:30;;;;;;;6.63;5.85;;;29.40;1.00;;;;;;4795307;29;48131;-88
2023/06/11 09:07:01;;;;;;;7.57;6.38;;;29.50;1.00;;;;;;4810463;29;38918;-86
2023/06/11 09:09:27;;;;;;;10.75;6.65;;;29.40;1.00;;;;;;4811745;29;37264;-86
2023/06/11 09:11:53;;;;;;;7.82;6.53;;;29.40;99.90;;;;;;4801419;29;37353;-85
2023/06/11 09:14:20;;;;;;;7.43;6.68;;;29.60;90.50;;;;;;4802326;29;36510;-86
2023/06/11 09:16:47;;;;;;;6.70;6.10;;;29.60;1.00;;;;;;4816728;29;37654;-85
2023/06/11 09:19:17;;;;;;;6.38;5.78;;;29.70;1.00;;;;;;4816549;29;39079;-85
2023/06/11 09:21:56;;;;;;;7.47;6.32;;;30.20;99.90;;;;;;4790000;29;37091;-86
2023/06/11 09:24:24;;;;;;;7.38;5.65;;;30.50;99.90;;;;;;4812670;29;37458;-86
2023/06/11 09:26:55;;;;;;;7.70;6.85;;;30.70;99.90;;;;;;4798558;29;37644;-85
2023/06/11 09:29:26;;;;;;;8.13;7.03;;;30.80;1.00;;;;;;4816232;29;38721;-86
2023/06/11 09:32:06;;;;;;;7.38;6.40;;;31.00;1.00;;;;;;4802379;29;38496;-86
2023/06/11 09:34:33;;;;;;;7.65;6.03;;;30.90;1.00;;;;;;4802997;29;49322;-87
2023/06/11 09:37:03;;;;;;;6.75;6.00;;;30.60;1.00;;;;;;4809466;29;38559;-85
2023/06/11 09:39:32;;;;;;;7.63;6.82;;;30.60;1.00;;;;;;4806450;29;47093;-84
2023/06/11 09:41:59;;;;;;;6.18;5.57;;;30.60;1.00;;;;;;4811930;29;38734;-87
2023/06/11 09:44:27;;;;;;;5.82;5.32;;;30.20;1.00;;;;;;4803144;29;36870;-87
2023/06/11 09:46:53;;;;;;;7.50;6.00;;;30.40;1.00;;;;;;4801956;29;38047;-86
2023/06/11 09:49:22;;;;;;;8.70;5.93;;;30.70;89.50;;;;;;4802658;29;37325;-87
2023/06/11 09:51:50;;;;;;;8.75;6.15;;;31.00;1.00;;;;;;4819768;29;37904;-87
2023/06/11 09:54:18;;;;;;;6.57;5.97;;;31.20;1.00;;;;;;4809304;29;36190;-88
2023/06/11 09:56:44;;;;;;;6.28;5.68;;;31.10;99.90;;;;;;4810381;29;39931;-85
2023/06/11 09:59:12;;;;;;;9.43;6.38;;;31.00;1.00;;;;;;4818426;29;39441;-86
2023/06/11 10:01:43;;;;;;;9.13;6.80;;;30.70;1.00;;;;;;4806356;29;36867;-88
2023/06/11 10:04:10;;;;;;;;;;;30.80;1.00;;;;;;4802554;29;36161;-88
2023/06/11 10:06:43;;;;;;;7.60;5.70;;;30.90;1.00;;;;;;4814155;29;38784;-86
2023/06/11 10:09:12;;;;;;;6.22;5.50;;;31.00;1.00;;;;;;4797833;29;37771;-86
2023/06/11 10:11:40;;;;;;;7.72;6.35;;;31.30;99.90;;;;;;4801035;29;37170;-87
2023/06/11 10:14:20;;;;;;;7.50;6.22;;;31.20;1.00;;;;;;4798543;29;36167;-88
2023/06/11 10:16:50;;;;;;;6.60;5.93;;;30.60;1.00;;;;;;4813362;29;39088;-87
2023/06/11 10:19:17;;;;;;;6.78;6.18;;;31.20;1.00;;;;;;4801463;29;37813;-87
2023/06/11 10:21:50;;;;;;;7.63;6.93;;;31.60;1.00;;;;;;4799658;29;36962;-84
2023/06/11 10:24:24;;;;;;;6.72;6.10;;;31.30;99.90;;;;;;4818332;29;37206;-86
2023/06/11 10:27:14;;;;;;;5.97;5.47;;;30.90;99.90;;;;;;4807054;29;38521;-84
2023/06/11 10:29:42;;;;;;;6.57;5.05;;;30.40;1.00;;;;;;4816711;29;47272;-85
2023/06/11 10:32:18;;;;;;;6.13;5.53;;;31.00;1.00;;;;;;4821117;29;37905;-84
2023/06/11 10:34:47;;;;;;;7.40;5.18;;;31.50;1.00;;;;;;4801701;29;35975;-86
2023/06/11 10:37:13;;;;;;;5.70;5.20;;;31.30;1.00;;;;;;4813939;29;38351;-85
2023/06/11 10:39:54;;;;;;;5.72;5.22;;;31.30;45.00;;;;;;4820833;29;38216;-85
2023/06/11 10:42:38;;;;;;;6.65;5.60;;;31.40;1.00;;;;;;4795918;29;37207;-83
2023/06/11 10:45:14;;;;;;;6.22;5.63;;;31.40;99.90;;;;;;4800626;29;36051;-88
2023/06/11 10:47:46;;;;;;;5.82;5.32;;;31.40;99.90;;;;;;4813505;29;48187;-82
2023/06/11 10:50:16;;;;;;;6.25;5.65;;;31.60;1.00;;;;;;4794294;29;38221;-86
2023/06/11 10:52:58;;;;;;;6.28;5.50;;;31.20;99.90;;;;;;4818332;29;37076;-85
2023/06/11 10:55:29;;;;;;;6.20;5.50;;;31.30;99.90;;;;;;4815130;29;36971;-84
2023/06/11 10:57:59;;;;;;;6.07;5.40;;;31.60;99.90;;;;;;4810673;29;38711;-86
2023/06/11 11:00:36;;;;;;;5.38;4.90;;;31.90;99.90;;;;;;4813732;29;37831;-87
2023/06/11 11:03:04;;;;;;;5.60;5.10;;;31.80;99.90;;;;;;4810771;29;38000;-90
2023/06/11 11:05:31;;;;;;;5.72;5.05;;;31.20;99.90;;;;;;4800989;29;36364;-85
2023/06/11 11:08:00;;;;;;;6.32;5.03;;;30.70;99.90;;;;;;4812590;29;36996;-84
2023/06/11 11:10:28;;;;;;;4.70;4.30;;;30.90;99.90;;;;;;4801838;29;37563;-85
2023/06/11 11:12:55;;;;;;;4.85;4.25;;;31.00;99.90;;;;;;4812327;29;37941;-86
2023/06/11 11:15:21;;;;;;;6.07;5.40;;;31.40;99.90;;;;;;4809935;29;36148;-89
2023/06/11 11:17:48;;;;;;;8.48;5.30;;;31.30;99.90;;;;;;4815976;29;39084;-83
2023/06/11 11:20:19;;;;;;;5.60;5.03;;;31.50;99.90;;;;;;4820437;29;37843;-85
2023/06/11 11:22:54;;;;;;;7.68;5.38;;;31.20;99.90;;;;;;4810867;29;36930;-85
2023/06/11 11:25:32;;;;;;;6.28;4.95;;;31.10;99.90;;;;;;4804382;29;37245;-87
2023/06/11 11:27:58;;;;;;;6.63;5.28;;;31.20;99.90;;;;;;4815303;29;37606;-86
2023/06/11 11:30:24;;;;;;;6.40;4.88;;;31.20;99.90;;;;;;4807453;29;37132;-89
2023/06/11 11:32:52;;;;;;;4.82;4.40;;;31.50;99.90;;;;;;4812933;29;37380;-90
2023/06/11 11:35:21;;;;;;;5.78;4.35;;;31.80;99.90;;;;;;4796646;29;36520;-85
2023/06/11 11:37:51;;;;;;;7.30;4.30;;;32.00;99.90;;;;;;4799532;29;37730;-87
2023/06/11 11:40:21;;;;;;;6.22;4.40;;;32.10;99.90;;;;;;4811310;29;38577;-86
2023/06/11 11:42:48;;;;;;;4.60;4.20;;;32.20;99.90;;;;;;4815113;29;36926;-88
2023/06/11 11:45:15;;;;;;;4.85;4.45;;;32.30;99.90;;;;;;4818744;29;37201;-90
2023/06/11 11:47:44;;;;;;;4.25;3.83;;;32.30;99.90;;;;;;4826266;29;39302;-90
2023/06/11 11:50:22;;;;;;;6.47;4.28;;;32.00;99.90;;;;;;4821548;29;38078;-85
2023/06/11 11:53:05;;;;;;;8.30;4.78;;;31.80;99.90;;;;;;4810053;29;36925;-91
2023/06/11 11:55:35;;;;;;;6.90;4.45;;;31.40;99.90;;;;;;4802658;29;47570;-91
2023/06/11 11:58:12;;;;;;;7.50;4.45;;;31.00;99.90;;;;;;4821046;29;38705;-90
2023/06/11 12:00:52;;;;;;;5.88;4.28;;;31.10;99.90;;;;;;4802879;29;47271;-87
2023/06/11 12:03:20;;;;;;;6.90;4.40;;;31.30;99.90;;;;;;4816607;29;37214;-91
2023/06/11 12:06:01;;;;;;;4.20;3.75;;;31.80;99.90;;;;;;4806524;29;38143;-89
2023/06/11 12:08:29;;;;;;;4.85;3.88;;;31.90;99.90;;;;;;4815640;29;47671;-85
2023/06/11 12:10:57;;;;;;;4.70;4.18;;;32.30;99.90;;;;;;4800755;29;38537;-88
2023/06/11 12:13:23;;;;;;;5.30;4.18;;;32.10;99.90;;;;;;4803575;29;38626;-85
2023/06/11 12:15:50;;;;;;;4.78;4.20;;;31.80;99.90;;;;;;4815073;29;36443;-86
2023/06/11 12:18:16;;;;;;;5.57;4.20;;;31.90;99.90;;;;;;4798106;29;39003;-85
2023/06/11 12:20:47;;;;;;;4.60;4.20;;;31.90;99.90;;;;;;4796996;29;37357;-89
2023/06/11 12:23:14;;;;;;;8.02;5.10;;;31.80;99.90;;;;;;4794173;29;37328;-87
2023/06/11 12:25:42;;;;;;;5.13;4.15;;;31.80;99.90;;;;;;4802476;29;36260;-88
2023/06/11 12:28:08;;;;;;;6.15;4.45;;;31.80;99.90;;;;;;4802519;29;37852;-89
2023/06/11 12:30:37;;;;;;;6.03;4.10;;;32.10;99.90;;;;;;4821253;29;38244;-88
2023/06/11 12:33:03;;;;;;;4.82;4.20;;;32.20;99.90;;;;;;4817734;29;37875;-90
2023/06/11 12:35:31;;;;;;;5.13;4.63;;;31.90;99.90;;;;;;4818237;29;36458;-87
2023/06/11 12:37:57;;;;;;;6.20;4.20;;;31.80;99.90;;;;;;4812407;29;38175;-88
2023/06/11 12:40:28;;;;;;;7.85;4.53;;;31.20;99.90;;;;;;4800061;29;37317;-87
2023/06/11 12:42:58;;;;;;;5.35;4.60;;;30.80;99.90;;;;;;4799640;29;37176;-80
2023/06/11 12:45:32;;;;;;;6.15;4.20;;;30.90;99.90;;;;;;4805628;29;36812;-89
2023/06/11 12:47:59;;;;;;;4.88;4.40;;;31.50;99.90;;;;;;4812904;29;38631;-89
2023/06/11 12:50:25;;;;;;;4.75;4.20;;;31.30;99.90;;;;;;4796682;29;39211;-81
2023/06/11 12:52:52;;;;;;;6.70;4.28;;;30.90;99.90;;;;;;4798246;29;38004;-81
2023/06/11 12:55:19;;;;;;;5.97;4.40;;;30.60;99.90;;;;;;4792121;29;37797;-81
2023/06/11 12:57:48;;;;;;;4.80;4.30;;;31.00;99.90;;;;;;4806661;29;38962;-81
2023/06/11 13:00:15;;;;;;;4.97;4.30;;;31.00;99.90;;;;;;4812081;29;39181;-81